sensor_id;sensor_type;location;lat;lon;timestamp;temperature;humidity
10386;DHT22;34307;51.332;12.334;2023-08-06T03:40:36;15.80;99.90
10386;DHT22;34307;51.332;12.334;2023-08-06T03:43:06;15.70;99.90
10386;DHT22;34307;51.332;12.334;2023-08-06T03:45:35;15.70;99.90
10386;DHT22;34307;51.332;12.334;2023-08-06T03:48:03;15.80;99.90
10386;DHT22;34307;51.332;12.334;2023-08-06T03:50:32;15.80;99.90
10386;DHT22;34307;51.332;12.334;2023-08-06T03:52:59;15.80;99.90
10386;DHT22;34307;51.332;12.334;2023-08-06T03:55:28;15.80;99.90
10386;DHT22;34307;51.332;12.334;2023-08-06T03:57:59;15.80;99.90
10386;DHT22;34307;51.332;12.334;2023-08-06T04:00:27;15.70;99.90
10386;DHT22;34307;51.332;12.334;2023-08-06T04:02:57;15.80;99.90
10386;DHT22;34307;51.332;12.334;2023-08-06T04:05:25;15.80;99.90
10386;DHT22;34307;51.332;12.334;2023-08-06T04:07:53;15.80;99.90
10386;DHT22;34307;51.332;12.334;2023-08-06T04:10:21;15.80;99.90
10386;DHT22;34307;51.332;12.334;2023-08-06T04:12:50;15.70;99.90
10386;DHT22;34307;51.332;12.334;2023-08-06T04:15:19;15.60;99.90
10386;DHT22;34307;51.332;12.334;2023-08-06T04:17:47;15.60;99.90
10386;DHT22;34307;51.332;12.334;2023-08-06T04:20:15;15.60;99.90
10386;DHT22;34307;51.332;12.334;2023-08-06T04:22:44;15.60;99.90
10386;DHT22;34307;51.332;12.334;2023-08-06T04:25:13;15.60;99.90
10386;DHT22;34307;51.332;12.334;2023-08-06T04:27:41;15.60;99.90
10386;DHT22;34307;51.332;12.334;2023-08-06T08:32:48;18.10;99.90
10386;DHT22;34307;51.332;12.334;2023-08-06T08:35:16;18.00;99.90
10386;DHT22;34307;51.332;12.334;2023-08-06T08:37:44;18.20;99.90
10386;DHT22;34307;51.332;12.334;2023-08-06T08:40:14;18.20;99.90
10386;DHT22;34307;51.332;12.334;2023-08-06T08:42:42;18.30;99.90
10386;DHT22;34307;51.332;12.334;2023-08-06T08:45:13;18.30;99.90
10386;DHT22;34307;51.332;12.334;2023-08-06T08:47:42;18.50;99.90
10386;DHT22;34307;51.332;12.334;2023-08-06T08:50:14;18.70;99.90
10386;DHT22;34307;51.332;12.334;2023-08-06T08:52:43;18.90;99.90
10386;DHT22;34307;51.332;12.334;2023-08-06T08:55:16;19.20;99.90
10386;DHT22;34307;51.332;12.334;2023-08-06T08:57:44;19.30;99.90
10386;DHT22;34307;51.332;12.334;2023-08-06T09:00:12;19.60;99.90
10386;DHT22;34307;51.332;12.334;2023-08-06T09:02:42;19.60;99.90
10386;DHT22;34307;51.332;12.334;2023-08-06T09:05:15;20.00;99.90
10386;DHT22;34307;51.332;12.334;2023-08-06T09:07:48;20.30;99.90
10386;DHT22;34307;51.332;12.334;2023-08-06T09:10:17;20.10;99.90
10386;DHT22;34307;51.332;12.334;2023-08-06T09:12:51;20.20;99.90
10386;DHT22;34307;51.332;12.334;2023-08-06T09:15:21;20.30;99.90
10386;DHT22;34307;51.332;12.334;2023-08-06T09:17:52;20.30;99.90
10386;DHT22;34307;51.332;12.334;2023-08-06T09:20:23;20.30;99.90
10386;DHT22;34307;51.332;12.334;2023-08-06T09:22:52;19.80;99.90
10386;DHT22;34307;51.332;12.334;2023-08-06T09:25:21;20.00;99.90
10386;DHT22;34307;51.332;12.334;2023-08-06T09:27:52;20.30;99.90
10386;DHT22;34307;51.332;12.334;2023-08-06T09:30:32;20.20;99.90
10386;DHT22;34307;51.332;12.334;2023-08-06T09:33:01;20.40;99.90
10386;DHT22;34307;51.332;12.334;2023-08-06T09:35:31;20.00;99.20
10386;DHT22;34307;51.332;12.334;2023-08-06T09:38:06;19.80;99.90
10386;DHT22;34307;51.332;12.334;2023-08-06T09:40:36;19.80;94.80
10386;DHT22;34307;51.332;12.334;2023-08-06T09:43:07;20.00;95.00
10386;DHT22;34307;51.332;12.334;2023-08-06T09:45:36;19.80;96.50
10386;DHT22;34307;51.332;12.334;2023-08-06T09:48:07;20.10;99.90
10386;DHT22;34307;51.332;12.334;2023-08-06T09:50:38;19.90;98.80
10386;DHT22;34307;51.332;12.334;2023-08-06T09:53:08;19.50;99.90
10386;DHT22;34307;51.332;12.334;2023-08-06T09:55:36;19.90;99.90
10386;DHT22;34307;51.332;12.334;2023-08-06T09:58:07;20.00;99.90
10386;DHT22;34307;51.332;12.334;2023-08-06T10:00:35;19.90;98.60
10386;DHT22;34307;51.332;12.334;2023-08-06T10:03:06;20.00;99.00
10386;DHT22;34307;51.332;12.334;2023-08-06T10:05:37;19.90;99.90
10386;DHT22;34307;51.332;12.334;2023-08-06T10:08:07;19.80;97.70
10386;DHT22;34307;51.332;12.334;2023-08-06T10:10:35;20.00;96.80
10386;DHT22;34307;51.332;12.334;2023-08-06T10:13:08;20.20;96.30
10386;DHT22;34307;51.332;12.334;2023-08-06T10:15:37;20.30;96.80
10386;DHT22;34307;51.332;12.334;2023-08-06T10:18:06;20.30;92.50
10386;DHT22;34307;51.332;12.334;2023-08-06T10:20:36;20.40;94.00
10386;DHT22;34307;51.332;12.334;2023-08-06T10:23:05;20.50;90.90
10386;DHT22;34307;51.332;12.334;2023-08-06T10:25:35;20.30;96.50
10386;DHT22;34307;51.332;12.334;2023-08-06T10:28:09;20.30;89.40
10386;DHT22;34307;51.332;12.334;2023-08-06T10:30:42;20.70;91.10
10386;DHT22;34307;51.332;12.334;2023-08-06T10:33:10;20.40;87.40
10386;DHT22;34307;51.332;12.334;2023-08-06T10:35:43;20.20;91.50
10386;DHT22;34307;51.332;12.334;2023-08-06T10:38:14;20.30;90.90
10386;DHT22;34307;51.332;12.334;2023-08-06T10:41:00;20.30;91.40
10386;DHT22;34307;51.332;12.334;2023-08-06T10:43:30;20.60;93.00
10386;DHT22;34307;51.332;12.334;2023-08-06T10:46:00;21.00;89.40
10386;DHT22;34307;51.332;12.334;2023-08-06T10:48:30;20.70;87.10
10386;DHT22;34307;51.332;12.334;2023-08-06T10:51:01;20.50;90.10
10386;DHT22;34307;51.332;12.334;2023-08-06T10:53:30;20.70;90.50
10386;DHT22;34307;51.332;12.334;2023-08-06T10:56:00;20.90;88.10
10386;DHT22;34307;51.332;12.334;2023-08-06T10:58:33;21.60;82.80
10386;DHT22;34307;51.332;12.334;2023-08-06T11:01:01;21.80;74.50
10386;DHT22;34307;51.332;12.334;2023-08-06T11:03:29;21.30;73.20
10386;DHT22;34307;51.332;12.334;2023-08-06T11:05:57;21.40;73.60
10386;DHT22;34307;51.332;12.334;2023-08-06T11:08:27;21.60;74.10
10386;DHT22;34307;51.332;12.334;2023-08-06T11:10:56;21.30;74.50
10386;DHT22;34307;51.332;12.334;2023-08-06T11:13:34;21.50;72.90
10386;DHT22;34307;51.332;12.334;2023-08-06T11:16:08;21.60;73.00
10386;DHT22;34307;51.332;12.334;2023-08-06T11:18:37;21.70;68.40
10386;DHT22;34307;51.332;12.334;2023-08-06T11:21:06;21.60;70.50
10386;DHT22;34307;51.332;12.334;2023-08-06T11:23:36;21.70;72.90
10386;DHT22;34307;51.332;12.334;2023-08-06T11:26:04;21.90;71.50
10386;DHT22;34307;51.332;12.334;2023-08-06T11:28:32;22.60;66.50
10386;DHT22;34307;51.332;12.334;2023-08-06T11:31:00;22.50;65.30
10386;DHT22;34307;51.332;12.334;2023-08-06T11:33:30;22.30;62.90
10386;DHT22;34307;51.332;12.334;2023-08-06T11:36:03;22.00;65.90
10386;DHT22;34307;51.332;12.334;2023-08-06T11:38:32;22.20;65.80
10386;DHT22;34307;51.332;12.334;2023-08-06T11:41:01;21.90;65.20
10386;DHT22;34307;51.332;12.334;2023-08-06T11:43:34;21.80;65.90
10386;DHT22;34307;51.332;12.334;2023-08-06T11:46:02;21.90;63.80
10386;DHT22;34307;51.332;12.334;2023-08-06T11:48:51;21.80;61.30
10386;DHT22;34307;51.332;12.334;2023-08-06T11:51:22;21.80;60.80
10386;DHT22;34307;51.332;12.334;2023-08-06T11:53:51;22.00;60.60
10386;DHT22;34307;51.332;12.334;2023-08-06T11:56:24;22.00;59.90
10386;DHT22;34307;51.332;12.334;2023-08-06T11:58:53;22.10;59.30
10386;DHT22;34307;51.332;12.334;2023-08-06T12:01:27;22.50;59.50
10386;DHT22;34307;51.332;12.334;2023-08-06T12:03:58;22.20;58.70
10386;DHT22;34307;51.332;12.334;2023-08-06T12:06:28;22.30;58.20
10386;DHT22;34307;51.332;12.334;2023-08-06T12:08:56;21.90;59.30
10386;DHT22;34307;51.332;12.334;2023-08-06T12:11:28;22.40;58.30
10386;DHT22;34307;51.332;12.334;2023-08-06T12:13:59;23.10;54.60
10386;DHT22;34307;51.332;12.334;2023-08-06T12:16:28;23.00;54.90
10386;DHT22;34307;51.332;12.334;2023-08-06T12:18:56;23.30;53.60
10386;DHT22;34307;51.332;12.334;2023-08-06T12:21:27;24.10;51.50
10386;DHT22;34307;51.332;12.334;2023-08-06T12:23:56;23.80;49.20
10386;DHT22;34307;51.332;12.334;2023-08-06T12:26:28;23.90;45.60
10386;DHT22;34307;51.332;12.334;2023-08-06T12:28:56;23.50;46.90
10386;DHT22;34307;51.332;12.334;2023-08-06T12:31:25;23.90;45.80
10386;DHT22;34307;51.332;12.334;2023-08-06T12:33:54;23.70;46.10
10386;DHT22;34307;51.332;12.334;2023-08-06T12:36:22;23.70;47.40
10386;DHT22;34307;51.332;12.334;2023-08-06T12:38:50;23.60;46.10
10386;DHT22;34307;51.332;12.334;2023-08-06T12:41:18;23.50;46.50
10386;DHT22;34307;51.332;12.334;2023-08-06T12:43:50;22.80;46.50
10386;DHT22;34307;51.332;12.334;2023-08-06T12:46:18;22.30;49.80
10386;DHT22;34307;51.332;12.334;2023-08-06T12:48:49;22.40;50.50
10386;DHT22;34307;51.332;12.334;2023-08-06T12:51:17;22.20;49.70
10386;DHT22;34307;51.332;12.334;2023-08-06T12:53:45;21.90;50.10
10386;DHT22;34307;51.332;12.334;2023-08-06T12:56:14;21.70;49.00
10386;DHT22;34307;51.332;12.334;2023-08-06T12:58:42;21.80;50.00
10386;DHT22;34307;51.332;12.334;2023-08-06T13:01:12;21.70;49.20
10386;DHT22;34307;51.332;12.334;2023-08-06T13:03:42;21.60;50.50
10386;DHT22;34307;51.332;12.334;2023-08-06T13:06:10;21.00;56.90
10386;DHT22;34307;51.332;12.334;2023-08-06T13:08:38;21.00;63.50
10386;DHT22;34307;51.332;12.334;2023-08-06T13:11:07;20.90;62.20
10386;DHT22;34307;51.332;12.334;2023-08-06T13:13:35;21.00;63.70
10386;DHT22;34307;51.332;12.334;2023-08-06T13:16:04;20.80;68.50
10386;DHT22;34307;51.332;12.334;2023-08-06T13:18:33;21.00;73.00
10386;DHT22;34307;51.332;12.334;2023-08-06T13:21:04;21.30;74.10
10386;DHT22;34307;51.332;12.334;2023-08-06T13:23:32;21.50;66.30
10386;DHT22;34307;51.332;12.334;2023-08-06T13:26:00;22.00;59.90
10386;DHT22;34307;51.332;12.334;2023-08-06T13:28:30;22.20;56.00
10386;DHT22;34307;51.332;12.334;2023-08-06T13:30:59;22.90;54.60
10386;DHT22;34307;51.332;12.334;2023-08-06T13:33:28;23.20;50.60
10386;DHT22;34307;51.332;12.334;2023-08-06T13:35:58;24.40;50.70
10386;DHT22;34307;51.332;12.334;2023-08-06T13:38:28;25.40;43.80
10386;DHT22;34307;51.332;12.334;2023-08-06T13:40:56;25.90;34.50
10386;DHT22;34307;51.332;12.334;2023-08-06T13:43:25;26.60;33.50
10386;DHT22;34307;51.332;12.334;2023-08-06T13:45:54;27.60;30.50
10386;DHT22;34307;51.332;12.334;2023-08-06T13:48:22;28.00;25.30
10386;DHT22;34307;51.332;12.334;2023-08-06T13:50:50;27.00;23.20
10386;DHT22;34307;51.332;12.334;2023-08-06T13:53:20;27.10;25.60
10386;DHT22;34307;51.332;12.334;2023-08-06T13:55:56;27.40;26.20
10386;DHT22;34307;51.332;12.334;2023-08-06T13:58:24;28.50;23.40
10386;DHT22;34307;51.332;12.334;2023-08-06T14:00:54;29.10;17.70
10386;DHT22;34307;51.332;12.334;2023-08-06T14:03:24;30.10;15.70
10386;DHT22;34307;51.332;12.334;2023-08-06T14:05:53;30.60;9.40
10386;DHT22;34307;51.332;12.334;2023-08-06T14:08:27;31.00;5.20
10386;DHT22;34307;51.332;12.334;2023-08-06T14:10:55;32.00;1.00
10386;DHT22;34307;51.332;12.334;2023-08-06T14:13:23;32.40;1.00
10386;DHT22;34307;51.332;12.334;2023-08-06T14:15:51;30.20;1.00
10386;DHT22;34307;51.332;12.334;2023-08-06T14:18:19;28.40;1.00
10386;DHT22;34307;51.332;12.334;2023-08-06T14:20:48;28.20;1.00
10386;DHT22;34307;51.332;12.334;2023-08-06T14:23:16;27.00;1.00
10386;DHT22;34307;51.332;12.334;2023-08-06T14:25:46;27.50;1.00
10386;DHT22;34307;51.332;12.334;2023-08-06T14:28:14;26.80;1.00
10386;DHT22;34307;51.332;12.334;2023-08-06T14:30:42;25.40;1.00
10386;DHT22;34307;51.332;12.334;2023-08-06T14:33:14;25.40;1.00
10386;DHT22;34307;51.332;12.334;2023-08-06T14:35:53;27.10;1.00
10386;DHT22;34307;51.332;12.334;2023-08-06T14:38:22;27.70;1.00
10386;DHT22;34307;51.332;12.334;2023-08-06T14:40:51;27.70;1.00
10386;DHT22;34307;51.332;12.334;2023-08-06T14:43:23;28.20;1.00
10386;DHT22;34307;51.332;12.334;2023-08-06T14:45:52;28.80;1.00
10386;DHT22;34307;51.332;12.334;2023-08-06T14:48:20;27.00;1.00
10386;DHT22;34307;51.332;12.334;2023-08-06T14:50:48;26.20;1.00
10386;DHT22;34307;51.332;12.334;2023-08-06T14:53:16;26.20;1.00
10386;DHT22;34307;51.332;12.334;2023-08-06T14:55:44;25.40;1.00
10386;DHT22;34307;51.332;12.334;2023-08-06T14:58:16;25.20;1.00
10386;DHT22;34307;51.332;12.334;2023-08-06T15:00:44;25.80;1.00
10386;DHT22;34307;51.332;12.334;2023-08-06T15:03:13;24.90;1.00
10386;DHT22;34307;51.332;12.334;2023-08-06T15:05:43;24.30;1.00
10386;DHT22;34307;51.332;12.334;2023-08-06T15:08:12;24.30;1.00
10386;DHT22;34307;51.332;12.334;2023-08-06T15:10:39;24.50;2.60
10386;DHT22;34307;51.332;12.334;2023-08-06T15:13:08;24.10;3.00
10386;DHT22;34307;51.332;12.334;2023-08-06T15:15:37;24.20;3.10
10386;DHT22;34307;51.332;12.334;2023-08-06T15:18:08;24.40;4.00
10386;DHT22;34307;51.332;12.334;2023-08-06T15:20:41;24.50;5.00
10386;DHT22;34307;51.332;12.334;2023-08-06T15:23:10;24.10;4.60
10386;DHT22;34307;51.332;12.334;2023-08-06T15:25:38;23.50;5.10
10386;DHT22;34307;51.332;12.334;2023-08-06T15:28:06;23.20;8.00
10386;DHT22;34307;51.332;12.334;2023-08-06T15:30:35;23.40;9.40
10386;DHT22;34307;51.332;12.334;2023-08-06T15:33:05;23.50;7.90
10386;DHT22;34307;51.332;12.334;2023-08-06T15:35:34;23.60;8.70
10386;DHT22;34307;51.332;12.334;2023-08-06T15:38:02;23.70;10.50
10386;DHT22;34307;51.332;12.334;2023-08-06T15:40:33;25.70;6.80
10386;DHT22;34307;51.332;12.334;2023-08-06T15:43:02;26.30;1.90
10386;DHT22;34307;51.332;12.334;2023-08-06T15:45:30;25.40;1.30
10386;DHT22;34307;51.332;12.334;2023-08-06T15:47:58;24.10;3.60
10386;DHT22;34307;51.332;12.334;2023-08-06T15:50:28;22.90;18.10
10386;DHT22;34307;51.332;12.334;2023-08-06T15:52:57;23.00;29.50
10386;DHT22;34307;51.332;12.334;2023-08-06T15:55:27;22.90;40.70
10386;DHT22;34307;51.332;12.334;2023-08-06T15:57:55;23.00;45.00
10386;DHT22;34307;51.332;12.334;2023-08-06T16:00:23;23.00;47.40
10386;DHT22;34307;51.332;12.334;2023-08-06T16:02:52;22.80;49.00
10386;DHT22;34307;51.332;12.334;2023-08-06T16:05:20;22.50;52.00
10386;DHT22;34307;51.332;12.334;2023-08-06T16:07:50;22.30;54.40
10386;DHT22;34307;51.332;12.334;2023-08-06T16:10:18;22.10;55.50
10386;DHT22;34307;51.332;12.334;2023-08-06T16:12:49;21.80;56.20
10386;DHT22;34307;51.332;12.334;2023-08-06T16:15:18;21.80;57.80
10386;DHT22;34307;51.332;12.334;2023-08-06T16:18:24;21.60;59.80
10386;DHT22;34307;51.332;12.334;2023-08-06T16:20:52;21.60;61.30
10386;DHT22;34307;51.332;12.334;2023-08-06T16:23:26;21.60;62.00
10386;DHT22;34307;51.332;12.334;2023-08-06T16:25:56;21.70;61.90
10386;DHT22;34307;51.332;12.334;2023-08-06T16:28:24;21.70;63.10
10386;DHT22;34307;51.332;12.334;2023-08-06T16:30:56;21.70;64.40
10386;DHT22;34307;51.332;12.334;2023-08-06T16:33:24;21.60;64.10
10386;DHT22;34307;51.332;12.334;2023-08-06T16:35:54;21.70;64.60
10386;DHT22;34307;51.332;12.334;2023-08-06T16:38:29;21.70;65.20
10386;DHT22;34307;51.332;12.334;2023-08-06T16:40:58;21.50;65.20
10386;DHT22;34307;51.332;12.334;2023-08-06T16:43:30;21.50;65.90
10386;DHT22;34307;51.332;12.334;2023-08-06T16:45:58;21.30;66.70
10386;DHT22;34307;51.332;12.334;2023-08-06T16:48:27;20.20;91.00
10386;DHT22;34307;51.332;12.334;2023-08-06T16:51:00;19.30;99.90
10386;DHT22;34307;51.332;12.334;2023-08-06T16:53:30;18.90;99.90
10386;DHT22;34307;51.332;12.334;2023-08-06T16:55:58;18.60;99.90
10386;DHT22;34307;51.332;12.334;2023-08-06T16:58:27;18.20;99.90
10386;DHT22;34307;51.332;12.334;2023-08-06T17:00:56;18.10;99.90
10386;DHT22;34307;51.332;12.334;2023-08-06T17:03:31;18.00;99.90
10386;DHT22;34307;51.332;12.334;2023-08-06T17:06:01;17.80;99.90
10386;DHT22;34307;51.332;12.334;2023-08-06T17:08:31;17.50;99.90
10386;DHT22;34307;51.332;12.334;2023-08-06T17:11:01;17.50;99.90
10386;DHT22;34307;51.332;12.334;2023-08-06T17:13:29;17.40;99.90
10386;DHT22;34307;51.332;12.334;2023-08-06T17:15:58;17.30;99.90
10386;DHT22;34307;51.332;12.334;2023-08-06T17:18:26;17.30;99.90
10386;DHT22;34307;51.332;12.334;2023-08-06T17:20:54;17.10;99.90
10386;DHT22;34307;51.332;12.334;2023-08-06T17:23:23;17.10;99.90
10386;DHT22;34307;51.332;12.334;2023-08-06T17:25:54;16.90;99.90
10386;DHT22;34307;51.332;12.334;2023-08-06T17:28:22;16.70;99.90
10386;DHT22;34307;51.332;12.334;2023-08-06T17:30:54;16.50;99.90
10386;DHT22;34307;51.332;12.334;2023-08-06T17:33:23;16.10;99.90
10386;DHT22;34307;51.332;12.334;2023-08-06T17:35:52;16.10;99.90
10386;DHT22;34307;51.332;12.334;2023-08-06T17:38:20;15.90;99.90
10386;DHT22;34307;51.332;12.334;2023-08-06T17:40:54;15.40;99.90
10386;DHT22;34307;51.332;12.334;2023-08-06T17:43:24;15.00;99.90
10386;DHT22;34307;51.332;12.334;2023-08-06T17:45:52;14.70;99.90
10386;DHT22;34307;51.332;12.334;2023-08-06T17:48:22;14.40;99.90
10386;DHT22;34307;51.332;12.334;2023-08-06T17:50:52;14.40;99.90
10386;DHT22;34307;51.332;12.334;2023-08-06T17:53:20;14.50;99.90
10386;DHT22;34307;51.332;12.334;2023-08-06T17:55:49;14.50;99.90
10386;DHT22;34307;51.332;12.334;2023-08-06T17:58:19;14.60;99.90
10386;DHT22;34307;51.332;12.334;2023-08-06T18:00:48;14.60;99.90
10386;DHT22;34307;51.332;12.334;2023-08-06T18:03:21;14.60;99.90
10386;DHT22;34307;51.332;12.334;2023-08-06T18:05:55;14.50;99.90
10386;DHT22;34307;51.332;12.334;2023-08-06T18:08:24;14.50;99.90
10386;DHT22;34307;51.332;12.334;2023-08-06T18:10:52;14.50;99.90
10386;DHT22;34307;51.332;12.334;2023-08-06T18:13:24;14.30;99.90
10386;DHT22;34307;51.332;12.334;2023-08-06T18:15:52;14.30;99.90
10386;DHT22;34307;51.332;12.334;2023-08-06T18:18:24;14.40;99.90
10386;DHT22;34307;51.332;12.334;2023-08-06T18:20:52;14.40;99.90
10386;DHT22;34307;51.332;12.334;2023-08-06T18:23:23;14.30;99.90
10386;DHT22;34307;51.332;12.334;2023-08-06T18:25:51;14.30;99.90
10386;DHT22;34307;51.332;12.334;2023-08-06T18:28:25;14.30;99.90
10386;DHT22;34307;51.332;12.334;2023-08-06T18:30:53;14.30;99.90
10386;DHT22;34307;51.332;12.334;2023-08-06T18:33:22;14.40;99.90
10386;DHT22;34307;51.332;12.334;2023-08-06T18:35:53;14.40;99.90
10386;DHT22;34307;51.332;12.334;2023-08-06T18:38:24;14.40;99.90
10386;DHT22;34307;51.332;12.334;2023-08-06T18:40:57;14.50;99.90
10386;DHT22;34307;51.332;12.334;2023-08-06T18:43:27;14.40;99.90
10386;DHT22;34307;51.332;12.334;2023-08-06T18:46:03;14.40;99.90
10386;DHT22;34307;51.332;12.334;2023-08-06T18:48:35;14.40;99.90
10386;DHT22;34307;51.332;12.334;2023-08-06T18:51:05;14.40;99.90
10386;DHT22;34307;51.332;12.334;2023-08-06T18:53:35;14.30;99.90
10386;DHT22;34307;51.332;12.334;2023-08-06T18:56:05;14.40;99.90
10386;DHT22;34307;51.332;12.334;2023-08-06T18:58:38;14.40;99.90
10386;DHT22;34307;51.332;12.334;2023-08-06T19:01:06;14.40;99.90
10386;DHT22;34307;51.332;12.334;2023-08-06T19:03:34;14.40;99.90
10386;DHT22;34307;51.332;12.334;2023-08-06T19:06:04;14.40;99.90
10386;DHT22;34307;51.332;12.334;2023-08-06T19:08:33;14.40;99.90
10386;DHT22;34307;51.332;12.334;2023-08-06T19:11:03;14.30;99.90
10386;DHT22;34307;51.332;12.334;2023-08-06T19:13:31;14.30;99.90
10386;DHT22;34307;51.332;12.334;2023-08-06T19:16:00;14.30;99.90
10386;DHT22;34307;51.332;12.334;2023-08-06T19:18:29;14.30;99.90
10386;DHT22;34307;51.332;12.334;2023-08-06T19:20:59;14.40;99.90
10386;DHT22;34307;51.332;12.334;2023-08-06T19:23:27;14.40;99.90
10386;DHT22;34307;51.332;12.334;2023-08-06T19:25:59;14.40;99.90
10386;DHT22;34307;51.332;12.334;2023-08-06T19:28:29;14.40;99.90
10386;DHT22;34307;51.332;12.334;2023-08-06T19:31:00;14.50;99.90
10386;DHT22;34307;51.332;12.334;2023-08-06T19:33:31;14.40;99.90
10386;DHT22;34307;51.332;12.334;2023-08-06T19:36:00;14.50;99.90
10386;DHT22;34307;51.332;12.334;2023-08-06T19:38:32;14.50;99.90
10386;DHT22;34307;51.332;12.334;2023-08-06T19:41:04;14.50;99.90
10386;DHT22;34307;51.332;12.334;2023-08-06T19:43:34;14.50;99.90
10386;DHT22;34307;51.332;12.334;2023-08-06T19:46:04;14.50;99.90
10386;DHT22;34307;51.332;12.334;2023-08-06T19:48:32;14.50;99.90
10386;DHT22;34307;51.332;12.334;2023-08-06T19:51:00;14.50;99.90
10386;DHT22;34307;51.332;12.334;2023-08-06T19:53:30;14.60;99.90
10386;DHT22;34307;51.332;12.334;2023-08-06T19:55:59;14.50;99.90
10386;DHT22;34307;51.332;12.334;2023-08-06T19:58:32;14.60;99.90
10386;DHT22;34307;51.332;12.334;2023-08-06T20:01:02;14.60;99.90
10386;DHT22;34307;51.332;12.334;2023-08-06T20:03:33;14.60;99.90
10386;DHT22;34307;51.332;12.334;2023-08-06T20:06:04;14.60;99.90
10386;DHT22;34307;51.332;12.334;2023-08-06T20:08:35;14.50;99.90
10386;DHT22;34307;51.332;12.334;2023-08-06T20:11:03;14.50;99.90
10386;DHT22;34307;51.332;12.334;2023-08-06T20:13:32;14.60;99.90
10386;DHT22;34307;51.332;12.334;2023-08-06T20:16:02;14.50;99.90
10386;DHT22;34307;51.332;12.334;2023-08-06T20:18:47;14.50;99.90
10386;DHT22;34307;51.332;12.334;2023-08-06T20:21:16;14.50;99.90
10386;DHT22;34307;51.332;12.334;2023-08-06T20:23:45;14.40;99.90
10386;DHT22;34307;51.332;12.334;2023-08-06T20:26:14;14.40;99.90
10386;DHT22;34307;51.332;12.334;2023-08-06T20:28:42;14.30;99.90
10386;DHT22;34307;51.332;12.334;2023-08-06T20:31:12;14.30;99.90
10386;DHT22;34307;51.332;12.334;2023-08-06T20:33:42;14.30;99.90
10386;DHT22;34307;51.332;12.334;2023-08-06T20:36:16;14.30;99.90
10386;DHT22;34307;51.332;12.334;2023-08-06T20:38:52;14.20;99.90
10386;DHT22;34307;51.332;12.334;2023-08-06T20:41:20;14.30;99.90
10386;DHT22;34307;51.332;12.334;2023-08-06T20:43:53;14.30;99.90
10386;DHT22;34307;51.332;12.334;2023-08-06T20:46:24;14.20;99.90
10386;DHT22;34307;51.332;12.334;2023-08-06T20:48:55;14.20;99.90
10386;DHT22;34307;51.332;12.334;2023-08-06T20:51:26;14.20;99.90
10386;DHT22;34307;51.332;12.334;2023-08-06T20:53:56;14.20;99.90
10386;DHT22;34307;51.332;12.334;2023-08-06T20:56:26;14.20;99.90
10386;DHT22;34307;51.332;12.334;2023-08-06T20:58:56;14.20;99.90
10386;DHT22;34307;51.332;12.334;2023-08-06T21:01:24;14.20;99.90
10386;DHT22;34307;51.332;12.334;2023-08-06T21:03:55;14.20;99.90
10386;DHT22;34307;51.332;12.334;2023-08-06T21:06:24;14.20;99.90
10386;DHT22;34307;51.332;12.334;2023-08-06T21:08:53;14.20;99.90
10386;DHT22;34307;51.332;12.334;2023-08-06T21:11:21;14.10;99.90
10386;DHT22;34307;51.332;12.334;2023-08-06T21:13:59;14.10;99.90
10386;DHT22;34307;51.332;12.334;2023-08-06T21:16:28;14.10;99.90
10386;DHT22;34307;51.332;12.334;2023-08-06T21:19:03;14.10;99.90
10386;DHT22;34307;51.332;12.334;2023-08-06T21:21:37;14.20;99.90
10386;DHT22;34307;51.332;12.334;2023-08-06T21:24:07;14.20;99.90
10386;DHT22;34307;51.332;12.334;2023-08-06T21:26:35;14.20;99.90
10386;DHT22;34307;51.332;12.334;2023-08-06T21:29:05;14.20;99.90
10386;DHT22;34307;51.332;12.334;2023-08-06T21:31:33;14.20;99.90
10386;DHT22;34307;51.332;12.334;2023-08-06T21:34:01;14.20;99.90
10386;DHT22;34307;51.332;12.334;2023-08-06T21:36:29;14.20;99.90
10386;DHT22;34307;51.332;12.334;2023-08-06T21:39:00;14.30;99.90
10386;DHT22;34307;51.332;12.334;2023-08-06T21:41:30;14.30;99.90
10386;DHT22;34307;51.332;12.334;2023-08-06T21:43:59;14.30;99.90
10386;DHT22;34307;51.332;12.334;2023-08-06T21:46:28;14.40;99.90
10386;DHT22;34307;51.332;12.334;2023-08-06T21:48:56;14.40;99.90
10386;DHT22;34307;51.332;12.334;2023-08-06T21:51:28;14.40;99.90
10386;DHT22;34307;51.332;12.334;2023-08-06T21:53:56;14.40;99.90
10386;DHT22;34307;51.332;12.334;2023-08-06T21:56:26;14.50;99.90
10386;DHT22;34307;51.332;12.334;2023-08-06T21:58:54;14.50;99.90
10386;DHT22;34307;51.332;12.334;2023-08-06T22:01:24;14.50;99.90
10386;DHT22;34307;51.332;12.334;2023-08-06T22:03:54;14.50;99.90
10386;DHT22;34307;51.332;12.334;2023-08-06T22:06:23;14.40;99.90
10386;DHT22;34307;51.332;12.334;2023-08-06T22:09:04;14.50;99.90
10386;DHT22;34307;51.332;12.334;2023-08-06T22:11:35;14.40;99.90
10386;DHT22;34307;51.332;12.334;2023-08-06T22:14:04;14.40;99.90
10386;DHT22;34307;51.332;12.334;2023-08-06T22:16:34;14.40;99.90
10386;DHT22;34307;51.332;12.334;2023-08-06T22:19:02;14.40;99.90
10386;DHT22;34307;51.332;12.334;2023-08-06T22:21:30;14.30;99.90
10386;DHT22;34307;51.332;12.334;2023-08-06T22:24:01;14.40;99.90
10386;DHT22;34307;51.332;12.334;2023-08-06T22:26:31;14.40;99.90
10386;DHT22;34307;51.332;12.334;2023-08-06T22:29:01;14.40;99.90
10386;DHT22;34307;51.332;12.334;2023-08-06T22:31:29;14.40;99.90
10386;DHT22;34307;51.332;12.334;2023-08-06T22:33:59;14.40;99.90
10386;DHT22;34307;51.332;12.334;2023-08-06T22:36:27;14.40;99.90
10386;DHT22;34307;51.332;12.334;2023-08-06T22:38:58;14.40;99.90
10386;DHT22;34307;51.332;12.334;2023-08-06T22:41:27;14.40;99.90
10386;DHT22;34307;51.332;12.334;2023-08-06T22:43:56;14.40;99.90
10386;DHT22;34307;51.332;12.334;2023-08-06T22:46:27;14.40;99.90
10386;DHT22;34307;51.332;12.334;2023-08-06T22:48:55;14.40;99.90
10386;DHT22;34307;51.332;12.334;2023-08-06T22:51:23;14.40;99.90
10386;DHT22;34307;51.332;12.334;2023-08-06T22:53:55;14.30;99.90
10386;DHT22;34307;51.332;12.334;2023-08-06T22:56:23;14.40;99.90
10386;DHT22;34307;51.332;12.334;2023-08-06T22:58:52;14.30;99.90
10386;DHT22;34307;51.332;12.334;2023-08-06T23:01:22;14.30;99.90
10386;DHT22;34307;51.332;12.334;2023-08-06T23:03:52;14.20;99.90
10386;DHT22;34307;51.332;12.334;2023-08-06T23:06:21;14.30;99.90
10386;DHT22;34307;51.332;12.334;2023-08-06T23:08:50;14.30;99.90
10386;DHT22;34307;51.332;12.334;2023-08-06T23:11:18;14.30;99.90
10386;DHT22;34307;51.332;12.334;2023-08-06T23:13:48;14.20;99.90
10386;DHT22;34307;51.332;12.334;2023-08-06T23:16:16;14.20;99.90